WetterOnline ( http://www.wetteronline.ch )

Wetter aktuell Goldberg

Aktuelles Wetter: Goldberg (58m)

6-stündlich | Neueste Meldungen
Ortszeit Temperatur Wetter
So, 16.12. 13:00 -0.2° C bedeckt
So, 16.12. 7:00 -0.0° C bedeckt
So, 16.12. 1:00 0.1° C bewölkt
Sa, 15.12. 19:00 -0.0° C bedeckt
Sa, 15.12. 13:00 -0.1° C wolkig
Sa, 15.12. 7:00 -0.7° C bedeckt
Sa, 15.12. 1:00 -0.3° C bewölkt
Fr, 14.12. 19:00 -0.0° C bedeckt
Ortszeit Temperatur Wetter
So, 16.12. 13:30 -0.0° C bedeckt
So, 16.12. 13:10 -0.1° C bedeckt
So, 16.12. 13:00 -0.2° C bedeckt
So, 16.12. 12:50 -0.2° C bedeckt
So, 16.12. 12:40 -0.2° C bedeckt
So, 16.12. 12:30 -0.4° C bedeckt
So, 16.12. 12:00 -0.3° C bedeckt
So, 16.12. 11:30 -0.1° C bedeckt
So, 16.12. 11:00 -0.2° C bedeckt
So, 16.12. 10:30 -0.1° C bedeckt
Ortszeit Relative Feuchte Sichtweite
So, 16.12. 13:00 70% 12 km
So, 16.12. 7:00 70% 13 km
So, 16.12. 1:00 86% 6 km
Sa, 15.12. 19:00 83% 15 km
Sa, 15.12. 13:00 74% 20 km
Sa, 15.12. 7:00 90% 6 km
Sa, 15.12. 1:00 89% 6 km
Fr, 14.12. 19:00 85% 12 km
Ortszeit Relative Feuchte Sichtweite
So, 16.12. 13:30 70% 12 km
So, 16.12. 13:10 69% -
So, 16.12. 13:00 70% 12 km
So, 16.12. 12:50 70% -
So, 16.12. 12:40 73% -
So, 16.12. 12:30 70% 10 km
So, 16.12. 12:00 74% 9 km
So, 16.12. 11:30 77% 7 km
So, 16.12. 11:00 73% 8 km
So, 16.12. 10:30 72% 9 km
Ortszeit Niederschlagsmenge Niederschlagsart
So, 16.12. 13:00 0.0 l/m2 in 6 Std. -
So, 16.12. 7:00 0.0 l/m2 in 12 Std. -
So, 16.12. 1:00 0.0 l/m2 in 6 Std. -
Sa, 15.12. 19:00 0.0 l/m2 in 12 Std. -
Sa, 15.12. 13:00 0.0 l/m2 in 6 Std. -
Sa, 15.12. 7:00 0.1 l/m2 in 12 Std. -
Sa, 15.12. 1:00 0.1 l/m2 in 6 Std. Schnee, Sprühregen
Fr, 14.12. 19:00 0.1 l/m2 in 12 Std. -
Ortszeit Niederschlagsmenge Niederschlagsart
So, 16.12. 13:30 0.0 l/m2 in 1 Std. -
So, 16.12. 13:10 keine Meldung -
So, 16.12. 13:00 0.0 l/m2 in 1 Std. -
So, 16.12. 12:50 keine Meldung -
So, 16.12. 12:40 keine Meldung -
So, 16.12. 12:30 0.0 l/m2 in 1 Std. -
So, 16.12. 12:00 0.0 l/m2 in 1 Std. -
So, 16.12. 11:30 0.0 l/m2 in 1 Std. -
So, 16.12. 11:00 0.0 l/m2 in 1 Std. -
So, 16.12. 10:30 0.0 l/m2 in 1 Std. -
Ortszeit Stärke Spitze Richtung
km/h Bft. km/h Grad Sektor
So, 16.12. 13:00 11 2 36 140° SO
So, 16.12. 7:00 15 3 28 120° SO
So, 16.12. 1:00 9 2 24 120° SO
Sa, 15.12. 19:00 6 1 13 120° SO
Sa, 15.12. 13:00 4 1 14 60° NO
Sa, 15.12. 7:00 4 1 14 100° O
Sa, 15.12. 1:00 4 1 14 100° O
Fr, 14.12. 19:00 7 2 14 100° O
Ortszeit Stärke Spitze Richtung
km/h Bft. km/h Grad Sektor
So, 16.12. 13:30 13 3 22 140° SO
So, 16.12. 13:10 11 2 - 140° SO
So, 16.12. 13:00 11 2 36 140° SO
So, 16.12. 12:50 11 2 - 140° SO
So, 16.12. 12:40 11 2 - 140° SO
So, 16.12. 12:30 14 3 36 160° S
So, 16.12. 12:00 11 2 25 150° SO
So, 16.12. 11:30 13 3 26 140° SO
So, 16.12. 11:00 13 3 30 130° SO
So, 16.12. 10:30 14 3 29 140° SO
Ortszeit Untergrenze Bedeckung Gattung
total tief tief mittel hoch
So, 16.12. 13:00 630 m 8/8 8/8 - - -
So, 16.12. 7:00 900 m 8/8 8/8 - - -
So, 16.12. 1:00 330 m 7/8 7/8 - - -
Sa, 15.12. 19:00 600 m 8/8 8/8 - - -
Sa, 15.12. 13:00 960 m 5/8 5/8 - - -
Sa, 15.12. 7:00 1050 m 8/8 8/8 - - -
Sa, 15.12. 1:00 360 m 7/8 7/8 - - -
Fr, 14.12. 19:00 1140 m 8/8 8/8 - - -
Ortszeit Bedeckungsgrad in Achtel und Wolkenuntergrenze
So, 16.12. 13:30 8(780m)
So, 16.12. 13:10 8(780m)
So, 16.12. 13:00 3(630m) 8(810m)
So, 16.12. 12:50 3(630m) 8(810m)
So, 16.12. 12:40 7(630m) 8(840m)
So, 16.12. 12:30 8(630m)
So, 16.12. 12:00 8(600m)
So, 16.12. 11:30 8(570m)
So, 16.12. 11:00 8(660m)
So, 16.12. 10:30 8(660m)
Ortszeit Luftdruck NN (hPa) Tendenz (hPa in 3 Std.)
So, 16.12. 13:00 1015 - 2,0
So, 16.12. 7:00 1018 - 2,4
So, 16.12. 1:00 1023 - 2,5
Sa, 15.12. 19:00 1027 - 1,6
Sa, 15.12. 13:00 1030 - 1,1
Sa, 15.12. 7:00 1030 + 0,3
Sa, 15.12. 1:00 1030 0,0
Fr, 14.12. 19:00 1029 + 0,9
Ortszeit Luftdruck NN (hPa) Tendenz (hPa in 3 Std.)
So, 16.12. 13:30 1015 - 2,4
So, 16.12. 13:10 1015 keine Meldung
So, 16.12. 13:00 1015 - 2,0
So, 16.12. 12:50 1015 keine Meldung
So, 16.12. 12:40 1015 keine Meldung
So, 16.12. 12:30 1016 - 1,8
So, 16.12. 12:00 1016 - 1,7
So, 16.12. 11:30 1016 - 1,4
So, 16.12. 11:00 1017 - 0,9
So, 16.12. 10:30 1017 - 0,8
Ortszeit Schneehöhe (cm)
So, 16.12. 13:00 0
So, 16.12. 7:00 0
So, 16.12. 1:00 0
Sa, 15.12. 19:00 0
Sa, 15.12. 13:00 0
Sa, 15.12. 7:00 0
Sa, 15.12. 1:00 0
Fr, 14.12. 19:00 0
Ortszeit Schneehöhe (cm)
So, 16.12. 13:30 0
So, 16.12. 13:10 0
So, 16.12. 13:00 0
So, 16.12. 12:50 0
So, 16.12. 12:40 0
So, 16.12. 12:30 0
So, 16.12. 12:00 0
So, 16.12. 11:30 0
So, 16.12. 11:00 0
So, 16.12. 10:30 0
Link zu dieser Seite / Seite empfehlen

Das Wetter in ...